createdAt,value
2022-10-18T00:00:47.855Z,4.57
2022-10-18T00:03:14.574Z,6.32
2022-10-18T00:05:41.288Z,6.30
2022-10-18T00:08:08.027Z,9.38
2022-10-18T00:10:34.729Z,6.13
2022-10-18T00:13:01.647Z,6.90
2022-10-18T00:15:28.403Z,4.15
2022-10-18T00:17:55.113Z,4.07
2022-10-18T00:20:21.895Z,4.95
2022-10-18T00:22:48.594Z,5.95
2022-10-18T00:25:15.768Z,6.30
2022-10-18T00:27:42.558Z,13.23
2022-10-18T00:30:10.032Z,10.30
2022-10-18T00:32:41.975Z,9.40
2022-10-18T00:37:36.261Z,3.33
2022-10-18T00:40:03.740Z,6.32
2022-10-18T00:42:34.535Z,7.05
2022-10-18T00:45:23.085Z,6.68
2022-10-18T00:47:59.096Z,6.00
2022-10-18T00:50:31.423Z,5.07
2022-10-18T00:53:02.620Z,5.20
2022-10-18T00:55:32.385Z,5.40
2022-10-18T00:58:00.063Z,4.18
2022-10-18T01:00:27.020Z,5.60
2022-10-18T01:02:53.770Z,4.80
2022-10-18T01:05:21.048Z,6.97
2022-10-18T01:07:53.484Z,4.88
2022-10-18T01:10:47.629Z,4.45
2022-10-18T01:13:41.961Z,8.52
2022-10-18T01:16:15.470Z,8.25
2022-10-18T01:19:02.362Z,6.43
2022-10-18T01:22:02.920Z,6.43
2022-10-18T01:24:58.094Z,4.30
2022-10-18T01:27:49.620Z,6.60
2022-10-18T01:30:39.659Z,6.97
2022-10-18T01:33:39.876Z,5.22
2022-10-18T01:36:20.884Z,11.25
2022-10-18T01:38:51.845Z,5.72
2022-10-18T01:41:22.690Z,5.23
2022-10-18T01:43:54.230Z,6.57
2022-10-18T01:46:24.703Z,7.55
2022-10-18T01:48:53.624Z,9.55
2022-10-18T01:51:25.989Z,8.30
2022-10-18T01:53:52.782Z,8.15
2022-10-18T01:56:37.982Z,8.48
2022-10-18T01:59:26.238Z,11.10
2022-10-18T02:02:19.015Z,10.60
2022-10-18T02:05:35.359Z,7.07
2022-10-18T02:08:22.446Z,11.52
2022-10-18T02:11:04.669Z,7.38
2022-10-18T02:13:48.387Z,9.77
2022-10-18T02:16:21.925Z,8.98
2022-10-18T02:19:03.582Z,10.02
2022-10-18T02:21:31.435Z,10.00
2022-10-18T02:24:00.731Z,9.27
2022-10-18T02:26:27.514Z,9.20
2022-10-18T02:28:54.263Z,16.35
2022-10-18T02:31:50.166Z,8.95
2022-10-18T02:34:16.926Z,13.32
2022-10-18T02:36:57.479Z,14.13
2022-10-18T02:39:31.421Z,13.27
2022-10-18T02:41:59.448Z,17.05
2022-10-18T02:44:26.767Z,14.00
2022-10-18T02:46:54.594Z,12.43
2022-10-18T02:49:21.487Z,14.35
2022-10-18T02:51:48.183Z,12.80
2022-10-18T02:54:14.877Z,12.20
2022-10-18T02:56:41.580Z,13.77
2022-10-18T02:59:08.329Z,10.85
2022-10-18T03:01:36.258Z,16.33
2022-10-18T03:04:04.587Z,13.40
2022-10-18T03:06:32.471Z,13.38
2022-10-18T03:08:59.348Z,8.82
2022-10-18T03:11:26.067Z,13.27
2022-10-18T03:13:52.783Z,11.98
2022-10-18T03:16:19.607Z,14.07
2022-10-18T03:18:46.394Z,16.00
2022-10-18T03:21:13.124Z,14.55
2022-10-18T03:23:41.700Z,11.75
2022-10-18T03:26:09.220Z,13.05
2022-10-18T03:28:35.949Z,15.88
2022-10-18T03:31:04.508Z,12.30
2022-10-18T03:33:32.589Z,13.80
2022-10-18T03:35:59.341Z,18.60
2022-10-18T03:38:26.219Z,11.60
2022-10-18T03:40:52.956Z,11.55
2022-10-18T03:43:19.706Z,15.43
2022-10-18T03:45:46.439Z,12.27
2022-10-18T03:48:13.498Z,21.40
2022-10-18T03:50:40.275Z,23.92
2022-10-18T03:53:07.051Z,27.33
2022-10-18T03:55:33.787Z,23.02
2022-10-18T03:58:00.523Z,23.88
2022-10-18T04:00:27.223Z,23.58
2022-10-18T04:02:55.881Z,23.10
2022-10-18T04:05:28.057Z,26.25
2022-10-18T04:10:21.782Z,25.40
2022-10-18T04:12:48.492Z,25.42
2022-10-18T04:15:15.263Z,27.83
2022-10-18T04:17:42.034Z,26.30
2022-10-18T04:20:09.327Z,27.27
2022-10-18T04:22:36.078Z,27.90
2022-10-18T04:25:03.214Z,26.17
2022-10-18T04:27:30.148Z,25.00
2022-10-18T04:29:57.012Z,28.73
2022-10-18T04:32:23.727Z,28.75
2022-10-18T04:34:50.423Z,28.38
2022-10-18T04:37:17.261Z,29.85
2022-10-18T04:39:49.825Z,25.77
2022-10-18T04:42:19.687Z,26.83
2022-10-18T04:44:46.424Z,30.50
2022-10-18T04:47:13.123Z,31.55
2022-10-18T04:49:39.840Z,25.25
2022-10-18T04:52:06.745Z,29.15
2022-10-18T04:54:33.446Z,25.05
2022-10-18T04:57:00.243Z,29.52
2022-10-18T04:59:26.994Z,27.33
2022-10-18T05:01:53.821Z,28.83
2022-10-18T05:04:20.666Z,27.67
2022-10-18T05:06:47.435Z,32.88
2022-10-18T05:09:14.143Z,25.40
2022-10-18T05:11:40.874Z,27.55
2022-10-18T05:14:10.047Z,28.08
2022-10-18T05:16:36.919Z,28.77
2022-10-18T05:19:05.633Z,26.33
2022-10-18T05:21:32.954Z,26.00
2022-10-18T05:23:59.792Z,32.22
2022-10-18T05:26:26.801Z,28.98
2022-10-18T05:28:53.561Z,38.67
2022-10-18T05:31:21.196Z,35.13
2022-10-18T05:33:47.904Z,30.88
2022-10-18T05:36:14.663Z,42.50
2022-10-18T05:38:42.700Z,32.47
2022-10-18T06:02:13.236Z,36.17
2022-10-18T06:04:39.995Z,44.08
2022-10-18T06:07:12.808Z,53.22
2022-10-18T06:09:39.693Z,49.72
2022-10-18T06:12:08.851Z,41.08
2022-10-18T06:14:37.275Z,43.28
2022-10-18T06:17:04.261Z,42.10
2022-10-18T06:19:30.998Z,43.42
2022-10-18T06:21:57.774Z,42.28
2022-10-18T06:24:24.529Z,46.22
2022-10-18T06:26:51.489Z,42.85
2022-10-18T06:29:18.243Z,42.38
2022-10-18T06:31:44.939Z,43.15
2022-10-18T06:34:11.658Z,47.15
2022-10-18T06:36:38.345Z,40.20
2022-10-18T06:39:05.099Z,47.92
2022-10-18T06:41:31.794Z,43.47
2022-10-18T06:44:03.128Z,42.25
2022-10-18T06:46:29.817Z,47.42
2022-10-18T06:48:57.549Z,52.35
2022-10-18T06:51:24.237Z,56.35
2022-10-18T06:53:59.581Z,56.25
2022-10-18T06:56:38.320Z,63.80
2022-10-18T06:59:05.118Z,55.05
2022-10-18T07:01:32.122Z,60.78
2022-10-18T07:03:58.987Z,54.03
2022-10-18T07:06:26.143Z,50.10
2022-10-18T07:08:54.046Z,49.78
2022-10-18T07:11:26.706Z,54.50
2022-10-18T07:14:04.078Z,55.72
2022-10-18T07:16:33.904Z,62.00
2022-10-18T07:19:00.726Z,52.95
2022-10-18T07:21:27.720Z,68.85
2022-10-18T07:23:54.740Z,59.58
2022-10-18T07:26:31.521Z,61.85
2022-10-18T07:29:08.966Z,75.78
2022-10-18T07:31:36.261Z,72.78
2022-10-18T07:34:07.967Z,105.63
2022-10-18T07:36:35.175Z,98.63
2022-10-18T07:39:02.091Z,106.07
2022-10-18T07:41:29.158Z,100.63
2022-10-18T07:43:55.934Z,111.85
2022-10-18T07:46:22.984Z,115.90
2022-10-18T07:48:50.765Z,151.23
2022-10-18T07:51:19.498Z,143.52
2022-10-18T07:53:46.661Z,117.88
2022-10-18T07:56:17.989Z,81.30
2022-10-18T07:58:51.138Z,92.68
2022-10-18T08:01:19.439Z,104.72
2022-10-18T08:03:46.351Z,87.97
2022-10-18T08:06:18.308Z,105.32
2022-10-18T08:08:45.837Z,99.63
2022-10-18T08:11:19.409Z,107.55
2022-10-18T08:13:46.994Z,89.70
2022-10-18T08:16:23.395Z,87.93
2022-10-18T08:18:50.162Z,104.90
2022-10-18T08:21:18.855Z,84.55
2022-10-18T08:23:45.780Z,98.35
2022-10-18T08:26:19.389Z,81.78
2022-10-18T08:28:53.935Z,68.88
2022-10-18T08:31:25.575Z,76.22
2022-10-18T08:33:52.345Z,75.95
2022-10-18T08:36:19.730Z,77.10
2022-10-18T08:38:46.690Z,69.50
2022-10-18T08:42:01.682Z,74.03
2022-10-18T08:44:31.979Z,58.80
2022-10-18T08:47:25.727Z,67.68
2022-10-18T08:49:58.430Z,58.40
2022-10-18T08:52:56.622Z,74.60
2022-10-18T08:55:36.880Z,52.88
2022-10-18T08:58:22.457Z,50.75
2022-10-18T09:01:41.098Z,63.90
2022-10-18T09:04:34.191Z,66.45
2022-10-18T09:07:25.359Z,58.80
2022-10-18T09:10:16.157Z,65.90
2022-10-18T09:13:01.142Z,56.85
2022-10-18T09:15:57.347Z,63.47
2022-10-18T09:18:39.165Z,68.00
2022-10-18T09:21:19.229Z,65.05
2022-10-18T09:23:56.073Z,65.18
2022-10-18T09:26:31.816Z,62.47
2022-10-18T09:29:35.037Z,58.65
2022-10-18T09:32:10.906Z,58.97
2022-10-18T09:34:52.067Z,51.95
2022-10-18T09:37:20.990Z,57.05
2022-10-18T09:39:50.682Z,54.42
2022-10-18T09:42:30.697Z,61.08
2022-10-18T09:45:06.924Z,54.33
2022-10-18T09:47:42.443Z,52.58
2022-10-18T09:50:42.639Z,52.50
2022-10-18T09:54:17.347Z,45.13
2022-10-18T09:57:00.329Z,54.03
2022-10-18T09:59:43.822Z,49.80
2022-10-18T10:02:23.533Z,55.45
2022-10-18T10:04:51.846Z,52.33
2022-10-18T10:07:24.021Z,48.40
2022-10-18T10:10:04.569Z,52.20
2022-10-18T10:12:38.792Z,52.50
2022-10-18T10:15:28.133Z,57.00
2022-10-18T10:18:02.891Z,48.47
2022-10-18T10:20:45.567Z,45.03
2022-10-18T10:23:28.116Z,44.83
2022-10-18T10:26:07.365Z,45.78
2022-10-18T10:28:46.108Z,38.95
2022-10-18T10:31:25.159Z,38.15
2022-10-18T10:34:14.135Z,42.30
2022-10-18T10:36:55.153Z,42.03
2022-10-18T10:39:24.531Z,40.73
2022-10-18T10:41:57.897Z,38.63
2022-10-18T10:44:30.669Z,35.55
2022-10-18T10:46:57.989Z,27.15
2022-10-18T10:49:47.511Z,31.60
2022-10-18T10:52:37.269Z,26.60
2022-10-18T10:55:17.020Z,32.97
2022-10-18T10:57:52.835Z,30.38
2022-10-18T11:00:45.816Z,29.67
2022-10-18T11:03:30.163Z,27.98
2022-10-18T11:06:00.593Z,31.40
2022-10-18T11:08:36.144Z,25.70
2022-10-18T11:11:34.043Z,22.58
2022-10-18T11:14:26.249Z,22.23
2022-10-18T11:17:08.123Z,24.42
2022-10-18T11:20:14.456Z,16.70
2022-10-18T11:22:56.382Z,22.25
2022-10-18T11:25:32.106Z,26.42
2022-10-18T11:28:28.668Z,24.42
2022-10-18T11:31:01.216Z,21.73
2022-10-18T11:34:07.638Z,21.42
2022-10-18T11:37:15.945Z,18.48
2022-10-18T11:40:04.166Z,22.77
2022-10-18T11:43:21.020Z,28.02
2022-10-18T11:46:14.261Z,21.17
2022-10-18T11:48:50.645Z,20.85
2022-10-18T11:52:07.406Z,19.25
2022-10-18T11:55:16.139Z,23.30
2022-10-18T11:57:54.700Z,21.38
2022-10-18T12:00:40.318Z,23.75
2022-10-18T12:03:27.148Z,22.20
2022-10-18T12:05:56.733Z,23.95
2022-10-18T12:08:38.912Z,26.20
2022-10-18T12:11:23.190Z,21.52
2022-10-18T12:13:57.717Z,24.30
2022-10-18T12:16:49.376Z,24.02
2022-10-18T12:19:26.764Z,23.35
2022-10-18T12:22:10.327Z,20.92
2022-10-18T12:24:37.954Z,23.95
2022-10-18T12:27:04.779Z,24.40
2022-10-18T12:29:51.537Z,22.15
2022-10-18T12:32:37.817Z,18.13
2022-10-18T12:35:13.922Z,17.83
2022-10-18T12:38:12.927Z,13.75
2022-10-18T12:40:46.435Z,18.02
2022-10-18T12:43:23.114Z,19.77
2022-10-18T12:45:59.054Z,19.58
2022-10-18T12:48:31.021Z,18.05
2022-10-18T12:51:21.910Z,21.08
2022-10-18T12:54:11.626Z,18.83
2022-10-18T12:56:44.058Z,18.55
2022-10-18T12:59:16.941Z,20.00
2022-10-18T13:01:52.939Z,16.40
2022-10-18T13:04:29.217Z,19.67
2022-10-18T13:07:02.977Z,14.10
2022-10-18T13:09:46.388Z,13.57
2022-10-18T13:12:13.014Z,18.92
2022-10-18T13:15:24.814Z,16.23
2022-10-18T13:18:39.208Z,14.85
2022-10-18T13:21:41.086Z,13.95
2022-10-18T13:24:34.202Z,13.77
2022-10-18T13:27:36.099Z,13.93
2022-10-18T13:30:09.196Z,12.77
2022-10-18T13:32:45.269Z,15.95
2022-10-18T13:35:51.834Z,12.60
2022-10-18T13:38:44.740Z,12.65
2022-10-18T13:41:15.094Z,11.77
2022-10-18T13:44:01.963Z,18.10
2022-10-18T13:46:34.620Z,10.98
2022-10-18T13:49:47.319Z,13.02
2022-10-18T13:52:50.916Z,13.55
2022-10-18T13:55:51.988Z,12.90
2022-10-18T13:59:14.135Z,11.77
2022-10-18T14:02:51.107Z,17.55
2022-10-18T14:05:49.252Z,17.80
2022-10-18T14:08:56.208Z,15.15
2022-10-18T14:11:38.048Z,14.32
2022-10-18T14:14:20.805Z,11.35
2022-10-18T14:16:56.647Z,14.75
2022-10-18T14:19:47.772Z,12.85
2022-10-18T14:22:48.679Z,13.80
2022-10-18T14:25:22.500Z,14.18
2022-10-18T14:27:52.316Z,13.63
2022-10-18T14:30:21.357Z,15.32
2022-10-18T14:32:52.620Z,16.92
2022-10-18T14:35:33.157Z,15.13
2022-10-18T14:38:00.875Z,18.70
2022-10-18T14:40:29.306Z,15.77
2022-10-18T14:42:56.337Z,14.45
2022-10-18T14:45:24.182Z,15.23
2022-10-18T14:47:50.904Z,11.85
2022-10-18T14:50:23.530Z,16.48
2022-10-18T14:52:50.769Z,11.50
2022-10-18T14:55:25.310Z,24.40
2022-10-18T14:57:52.098Z,16.33
2022-10-18T15:00:27.547Z,14.15
2022-10-18T15:02:54.401Z,13.23
2022-10-18T15:05:24.712Z,14.82
2022-10-18T15:07:53.119Z,14.38
2022-10-18T15:10:29.762Z,13.10
2022-10-18T15:13:09.681Z,12.55
2022-10-18T15:15:38.144Z,11.88
2022-10-18T15:18:06.521Z,15.40
2022-10-18T15:20:42.152Z,17.27
2022-10-18T15:23:27.028Z,16.20
2022-10-18T15:26:09.570Z,12.02
2022-10-18T15:28:53.702Z,14.60
2022-10-18T15:31:31.806Z,21.55
2022-10-18T15:34:13.786Z,11.63
2022-10-18T15:36:40.907Z,11.77
2022-10-18T15:39:26.520Z,15.60
2022-10-18T15:41:55.570Z,16.92
2022-10-18T15:44:46.927Z,11.18
2022-10-18T15:47:13.608Z,13.40
2022-10-18T15:49:46.229Z,11.50
2022-10-18T15:52:33.797Z,12.10
2022-10-18T15:55:29.362Z,16.08
2022-10-18T15:58:27.145Z,10.35
2022-10-18T16:00:59.138Z,20.27
2022-10-18T16:03:26.844Z,11.13
2022-10-18T16:05:59.796Z,9.50
2022-10-18T16:08:36.929Z,13.10
2022-10-18T16:11:03.655Z,12.27
2022-10-18T16:13:30.353Z,15.55
2022-10-18T16:15:57.085Z,8.27
2022-10-18T16:18:24.965Z,12.90
2022-10-18T16:20:51.772Z,10.02
2022-10-18T16:23:24.673Z,14.90
2022-10-18T16:25:52.322Z,7.13
2022-10-18T16:28:23.164Z,10.70
2022-10-18T16:30:59.908Z,7.18
2022-10-18T16:33:27.013Z,12.43
2022-10-18T16:35:54.086Z,8.90
2022-10-18T16:38:32.719Z,9.00
2022-10-18T16:41:04.820Z,9.60
2022-10-18T16:43:32.165Z,6.30
2022-10-18T16:45:58.976Z,7.38
2022-10-18T16:48:25.753Z,7.93
2022-10-18T16:50:54.747Z,10.13
2022-10-18T16:53:23.790Z,12.55
2022-10-18T16:56:01.512Z,9.15
2022-10-18T16:58:31.602Z,15.35
2022-10-18T17:01:01.033Z,10.45
2022-10-18T17:03:29.769Z,9.50
2022-10-18T17:05:56.747Z,13.82
2022-10-18T17:08:28.236Z,10.82
2022-10-18T17:10:59.193Z,6.65
2022-10-18T17:13:26.848Z,10.45
2022-10-18T17:15:54.270Z,8.35
2022-10-18T17:18:26.334Z,8.65
2022-10-18T17:20:53.519Z,11.57
2022-10-18T17:23:20.306Z,12.55
2022-10-18T17:25:59.047Z,12.30
2022-10-18T17:28:34.208Z,11.43
2022-10-18T17:31:00.945Z,16.58
2022-10-18T17:33:27.737Z,9.50
2022-10-18T17:35:54.432Z,13.93
2022-10-18T17:38:21.122Z,12.77
2022-10-18T17:40:47.804Z,11.23
2022-10-18T17:43:14.719Z,9.70
2022-10-18T17:45:55.559Z,13.07
2022-10-18T17:48:22.813Z,13.50
2022-10-18T17:50:49.506Z,14.93
2022-10-18T17:53:18.230Z,11.93
2022-10-18T17:55:44.907Z,10.57
2022-10-18T17:58:11.632Z,10.45
2022-10-18T18:00:38.348Z,9.13
2022-10-18T18:03:05.153Z,12.57
2022-10-18T18:05:33.974Z,11.45
2022-10-18T18:08:03.843Z,9.48
2022-10-18T18:10:33.406Z,10.55
2022-10-18T18:13:01.118Z,14.18
2022-10-18T18:15:28.075Z,14.82
2022-10-18T18:17:58.360Z,12.07
2022-10-18T18:20:26.446Z,10.48
2022-10-18T18:22:53.346Z,10.40
2022-10-18T18:25:20.047Z,10.13
2022-10-18T18:27:47.071Z,10.70
2022-10-18T18:30:15.252Z,8.32
2022-10-18T18:32:43.007Z,10.02
2022-10-18T18:35:09.728Z,8.48
2022-10-18T18:37:36.491Z,12.02
2022-10-18T18:40:03.712Z,10.05
2022-10-18T18:42:30.634Z,15.02
2022-10-18T18:44:57.543Z,9.35
2022-10-18T18:47:24.302Z,12.40
2022-10-18T18:49:51.574Z,16.52
2022-10-18T18:52:18.409Z,14.13
2022-10-18T18:54:45.194Z,14.30
2022-10-18T18:57:11.985Z,16.17
2022-10-18T18:59:38.740Z,13.48
2022-10-18T19:02:05.458Z,11.90
2022-10-18T19:04:32.683Z,10.60
2022-10-18T19:06:59.411Z,10.82
2022-10-18T19:09:27.291Z,7.25
2022-10-18T19:11:56.109Z,10.77
2022-10-18T19:14:25.359Z,10.25
2022-10-18T19:16:58.941Z,11.00
2022-10-18T19:19:29.161Z,9.18
2022-10-18T19:22:03.509Z,8.68
2022-10-18T19:24:31.083Z,10.43
2022-10-18T19:27:12.450Z,7.30
2022-10-18T19:29:40.778Z,10.65
2022-10-18T19:32:11.918Z,12.57
2022-10-18T19:34:38.835Z,5.47
2022-10-18T19:37:05.587Z,6.35
2022-10-18T19:39:34.650Z,7.22
2022-10-18T19:42:05.528Z,6.80
2022-10-18T19:44:35.810Z,7.13
2022-10-18T19:47:07.673Z,8.18
2022-10-18T19:49:34.568Z,10.23
2022-10-18T19:52:01.266Z,10.45
2022-10-18T19:54:28.260Z,9.50
2022-10-18T19:56:54.997Z,11.88
2022-10-18T19:59:22.751Z,10.77
2022-10-18T20:01:49.650Z,14.40
2022-10-18T20:04:16.970Z,8.35
2022-10-18T20:06:44.284Z,7.38
2022-10-18T20:09:14.788Z,7.55
2022-10-18T20:11:44.620Z,7.75
2022-10-18T20:14:11.479Z,8.07
